createdAt,value
2019-04-16T00:00:51.189Z,14.28
2019-04-16T00:03:20.283Z,35.15
2019-04-16T00:05:58.453Z,46.95
2019-04-16T00:08:29.055Z,34.85
2019-04-16T00:10:59.268Z,23.60
2019-04-16T00:13:32.257Z,34.13
2019-04-16T00:16:03.345Z,18.55
2019-04-16T00:18:32.151Z,11.53
2019-04-16T00:21:27.636Z,7.75
2019-04-16T00:24:10.341Z,6.80
2019-04-16T00:26:40.906Z,5.80
2019-04-16T00:29:13.238Z,6.65
2019-04-16T00:31:42.675Z,8.10
2019-04-16T00:34:14.228Z,7.20
2019-04-16T00:36:41.710Z,5.37
2019-04-16T00:39:10.475Z,6.28
2019-04-16T00:41:47.318Z,6.53
2019-04-16T00:44:15.960Z,5.62
2019-04-16T00:46:45.642Z,5.40
2019-04-16T00:49:14.350Z,5.70
2019-04-16T00:51:49.248Z,6.12
2019-04-16T00:54:23.957Z,5.95
2019-04-16T00:56:52.668Z,5.33
2019-04-16T00:59:24.934Z,5.65
2019-04-16T01:01:53.736Z,4.45
2019-04-16T01:04:22.429Z,4.60
2019-04-16T01:06:51.047Z,4.95
2019-04-16T01:09:19.781Z,4.60
2019-04-16T01:11:48.940Z,3.65
2019-04-16T01:14:24.194Z,4.28
2019-04-16T01:16:55.886Z,4.20
2019-04-16T01:19:27.134Z,4.70
2019-04-16T01:21:56.107Z,4.15
2019-04-16T01:24:24.936Z,3.90
2019-04-16T01:26:55.459Z,3.90
2019-04-16T01:29:24.947Z,3.67
2019-04-16T01:32:13.040Z,3.25
2019-04-16T01:34:49.741Z,3.52
2019-04-16T01:37:28.152Z,3.90
2019-04-16T01:40:01.368Z,3.30
2019-04-16T01:42:32.591Z,3.92
2019-04-16T01:45:01.379Z,4.20
2019-04-16T01:47:35.778Z,3.77
2019-04-16T01:50:02.992Z,4.45
2019-04-16T01:52:31.652Z,3.62
2019-04-16T01:55:00.497Z,3.77
2019-04-16T01:57:30.739Z,4.03
2019-04-16T01:59:59.651Z,3.25
2019-04-16T02:02:28.335Z,3.52
2019-04-16T02:04:57.026Z,3.70
2019-04-16T02:07:27.922Z,3.37
2019-04-16T02:09:56.316Z,3.05
2019-04-16T02:12:27.529Z,2.87
2019-04-16T02:14:56.590Z,3.37
2019-04-16T02:17:27.036Z,3.20
2019-04-16T02:19:55.581Z,3.37
2019-04-16T02:22:24.454Z,3.10
2019-04-16T02:24:57.813Z,4.05
2019-04-16T02:27:27.090Z,4.40
2019-04-16T02:29:58.506Z,4.20
2019-04-16T02:32:28.558Z,4.43
2019-04-16T02:34:57.218Z,3.52
2019-04-16T02:37:25.893Z,3.60
2019-04-16T02:40:00.903Z,3.65
2019-04-16T02:42:31.985Z,4.03
2019-04-16T02:45:02.234Z,3.30
2019-04-16T02:47:31.248Z,3.37
2019-04-16T02:50:03.685Z,3.47
2019-04-16T02:52:39.625Z,3.83
2019-04-16T02:55:19.340Z,3.45
2019-04-16T02:58:00.042Z,3.58
2019-04-16T03:00:37.515Z,4.28
2019-04-16T03:03:24.860Z,3.70
2019-04-16T03:06:00.689Z,3.50
2019-04-16T03:08:26.595Z,4.05
2019-04-16T03:10:55.294Z,3.83
2019-04-16T03:13:26.435Z,3.80
2019-04-16T03:16:05.865Z,3.70
2019-04-16T03:18:40.231Z,3.83
2019-04-16T03:21:11.539Z,4.00
2019-04-16T03:23:44.184Z,3.90
2019-04-16T03:26:16.156Z,3.72
2019-04-16T03:28:45.668Z,4.17
2019-04-16T03:31:22.478Z,3.70
2019-04-16T03:33:50.235Z,4.72
2019-04-16T03:36:17.664Z,4.60
2019-04-16T03:38:46.458Z,5.22
2019-04-16T03:41:16.077Z,7.60
2019-04-16T03:43:44.840Z,6.90
2019-04-16T03:46:14.174Z,6.45
2019-04-16T03:48:44.041Z,6.62
2019-04-16T03:51:12.860Z,8.20
2019-04-16T03:53:46.565Z,4.58
2019-04-16T03:56:15.773Z,5.85
2019-04-16T03:58:44.484Z,7.20
2019-04-16T04:01:14.130Z,5.60
2019-04-16T04:03:43.542Z,5.35
2019-04-16T04:06:12.245Z,9.98
2019-04-16T04:08:40.955Z,18.50
2019-04-16T04:11:11.005Z,20.05
2019-04-16T04:13:39.942Z,5.03
2019-04-16T04:16:08.924Z,5.60
2019-04-16T04:18:40.245Z,6.42
2019-04-16T04:21:11.275Z,6.30
2019-04-16T04:23:38.260Z,6.40
2019-04-16T04:26:08.905Z,6.58
2019-04-16T04:28:40.067Z,6.83
2019-04-16T04:31:08.814Z,5.97
2019-04-16T04:33:41.390Z,13.20
2019-04-16T04:36:08.895Z,11.80
2019-04-16T04:38:38.388Z,7.58
2019-04-16T04:41:07.841Z,29.57
2019-04-16T04:43:36.684Z,23.22
2019-04-16T04:46:05.929Z,6.72
2019-04-16T04:48:34.642Z,7.05
2019-04-16T04:51:06.890Z,9.85
2019-04-16T04:53:33.643Z,6.28
2019-04-16T04:56:02.308Z,7.47
2019-04-16T04:58:33.708Z,6.78
2019-04-16T05:01:01.343Z,6.10
2019-04-16T05:03:48.247Z,5.85
2019-04-16T05:06:20.510Z,4.90
2019-04-16T05:08:53.583Z,4.40
2019-04-16T05:11:31.568Z,4.65
2019-04-16T05:14:00.687Z,4.37
2019-04-16T05:16:31.538Z,8.38
2019-04-16T05:18:59.711Z,22.58
2019-04-16T05:21:28.506Z,10.35
2019-04-16T05:24:00.968Z,5.25
2019-04-16T05:26:33.504Z,4.15
2019-04-16T05:29:18.505Z,4.67
2019-04-16T05:31:48.153Z,4.30
2019-04-16T05:34:19.479Z,4.33
2019-04-16T05:36:49.163Z,4.67
2019-04-16T05:39:17.869Z,4.75
2019-04-16T05:41:46.565Z,3.67
2019-04-16T05:44:15.239Z,4.30
2019-04-16T05:46:48.284Z,4.00
2019-04-16T05:49:15.497Z,4.78
2019-04-16T05:51:48.472Z,8.10
2019-04-16T05:54:22.570Z,5.67
2019-04-16T05:56:55.666Z,4.87
2019-04-16T05:59:24.452Z,5.40
2019-04-16T06:01:57.240Z,5.40
2019-04-16T06:04:25.700Z,4.60
2019-04-16T06:06:54.696Z,4.65
2019-04-16T06:09:23.464Z,5.03
2019-04-16T06:11:52.254Z,4.20
2019-04-16T06:14:25.436Z,4.62
2019-04-16T06:17:10.923Z,4.30
2019-04-16T06:19:46.424Z,4.75
2019-04-16T06:22:13.163Z,4.47
2019-04-16T06:24:43.530Z,6.87
2019-04-16T06:27:13.750Z,4.28
2019-04-16T06:29:52.266Z,3.92
2019-04-16T06:32:41.769Z,7.72
2019-04-16T06:35:42.297Z,4.55
2019-04-16T06:38:06.347Z,3.40
2019-04-16T06:40:42.437Z,3.67
2019-04-16T06:43:26.155Z,4.20
2019-04-16T06:46:13.001Z,3.27
2019-04-16T06:48:52.718Z,3.90
2019-04-16T06:51:34.081Z,3.95
2019-04-16T06:54:04.430Z,4.10
2019-04-16T06:56:41.026Z,3.42
2019-04-16T06:59:11.608Z,3.77
2019-04-16T07:01:58.417Z,3.72
2019-04-16T07:04:30.672Z,4.30
2019-04-16T07:07:21.716Z,3.95
2019-04-16T07:09:51.024Z,3.30
2019-04-16T07:12:20.798Z,3.92
2019-04-16T07:14:49.506Z,4.12
2019-04-16T07:17:18.889Z,4.12
2019-04-16T07:19:47.695Z,3.67
2019-04-16T07:22:21.446Z,3.60
2019-04-16T07:24:52.002Z,4.00
2019-04-16T07:27:24.235Z,3.90
2019-04-16T07:29:54.629Z,4.35
2019-04-16T07:32:44.485Z,4.50
2019-04-16T07:35:19.334Z,4.60
2019-04-16T07:37:56.981Z,4.45
2019-04-16T07:40:47.781Z,4.62
2019-04-16T07:43:18.138Z,4.20
2019-04-16T07:45:49.430Z,4.25
2019-04-16T07:48:22.550Z,4.20
2019-04-16T07:51:08.973Z,4.25
2019-04-16T07:53:55.907Z,3.90
2019-04-16T07:56:26.131Z,3.72
2019-04-16T07:58:59.788Z,4.25
2019-04-16T08:01:25.130Z,3.22
2019-04-16T08:04:00.986Z,3.10
2019-04-16T08:06:27.512Z,3.27
2019-04-16T08:08:58.486Z,3.98
2019-04-16T08:11:27.761Z,3.60
2019-04-16T08:13:56.833Z,3.02
2019-04-16T08:16:25.935Z,2.65
2019-04-16T08:18:56.045Z,3.15
2019-04-16T08:21:25.183Z,3.08
2019-04-16T08:23:55.876Z,3.20
2019-04-16T08:26:24.969Z,2.80
2019-04-16T08:28:54.062Z,2.30
2019-04-16T08:31:25.789Z,2.10
2019-04-16T08:33:54.917Z,2.65
2019-04-16T08:36:24.010Z,2.00
2019-04-16T08:38:53.311Z,11.22
2019-04-16T08:41:22.411Z,2.00
2019-04-16T08:43:51.500Z,1.82
2019-04-16T08:46:20.594Z,2.40
2019-04-16T08:48:53.792Z,2.52
2019-04-16T08:51:30.302Z,2.33
2019-04-16T08:53:50.952Z,2.55
2019-04-16T08:56:20.046Z,3.02
2019-04-16T08:58:49.138Z,5.33
2019-04-16T09:01:23.334Z,4.03
2019-04-16T09:03:50.425Z,6.03
2019-04-16T09:06:19.521Z,4.60
2019-04-16T09:09:12.428Z,4.53
2019-04-16T09:11:35.321Z,4.08
2019-04-16T09:14:06.746Z,4.72
2019-04-16T09:16:44.648Z,2.62
2019-04-16T09:19:15.385Z,3.00
2019-04-16T09:21:46.553Z,2.87
2019-04-16T09:24:24.647Z,2.27
2019-04-16T09:27:02.752Z,2.37
2019-04-16T09:29:51.729Z,3.55
2019-04-16T09:32:42.704Z,3.12
2019-04-16T09:35:19.917Z,2.87
2019-04-16T09:38:00.454Z,3.25
2019-04-16T09:40:40.302Z,2.08
2019-04-16T09:43:17.265Z,2.25
2019-04-16T09:45:51.581Z,2.30
2019-04-16T09:48:21.700Z,2.37
2019-04-16T09:50:50.811Z,2.20
2019-04-16T09:53:33.491Z,2.52
2019-04-16T09:55:54.231Z,2.00
2019-04-16T09:58:24.899Z,3.60
2019-04-16T10:01:08.082Z,2.83
2019-04-16T10:03:38.592Z,2.20
2019-04-16T10:06:07.901Z,1.60
2019-04-16T10:08:38.429Z,2.10
2019-04-16T10:11:11.425Z,2.55
2019-04-16T10:13:40.622Z,3.00
2019-04-16T10:16:13.565Z,2.50
2019-04-16T10:18:44.413Z,2.22
2019-04-16T10:21:18.301Z,2.75
2019-04-16T10:24:00.873Z,2.85
2019-04-16T10:26:29.958Z,2.55
2019-04-16T10:29:05.893Z,1.98
2019-04-16T10:31:33.681Z,2.83
2019-04-16T10:34:02.985Z,2.65
2019-04-16T10:36:37.100Z,1.87
2019-04-16T10:39:10.068Z,2.10
2019-04-16T10:41:46.250Z,1.80
2019-04-16T10:44:19.952Z,1.75
2019-04-16T10:49:36.667Z,2.15
2019-04-16T10:52:07.510Z,2.02
2019-04-16T10:54:40.170Z,2.77
2019-04-16T10:57:28.746Z,2.10
2019-04-16T11:00:17.780Z,2.90
2019-04-16T11:02:51.510Z,2.60
2019-04-16T11:08:08.735Z,3.45
2019-04-16T11:10:37.912Z,4.10
2019-04-16T11:13:12.050Z,3.80
2019-04-16T11:15:48.357Z,3.50
2019-04-16T11:18:17.714Z,3.75
2019-04-16T11:20:46.820Z,4.37
2019-04-16T11:23:17.483Z,4.33
2019-04-16T11:25:46.848Z,5.15
2019-04-16T11:28:15.907Z,5.20
2019-04-16T11:30:50.560Z,5.37
2019-04-16T11:33:19.653Z,6.65
2019-04-16T11:35:52.827Z,6.15
2019-04-16T11:38:22.516Z,4.40
2019-04-16T11:40:51.340Z,5.00
2019-04-16T11:43:20.130Z,4.70
2019-04-16T11:45:48.928Z,5.33
2019-04-16T11:48:20.187Z,3.25
2019-04-16T11:50:48.875Z,2.80
2019-04-16T11:53:17.735Z,2.95
2019-04-16T11:55:46.410Z,2.42
2019-04-16T11:58:34.723Z,2.72
2019-04-16T12:01:23.255Z,4.40
2019-04-16T12:03:57.460Z,5.33
2019-04-16T12:06:28.758Z,5.62
2019-04-16T12:08:59.460Z,5.72
2019-04-16T12:11:44.573Z,5.67
2019-04-16T12:14:34.384Z,5.47
2019-04-16T12:17:16.725Z,6.87
2019-04-16T12:20:03.298Z,6.20
2019-04-16T12:22:36.748Z,6.70
2019-04-16T12:25:23.559Z,4.20
2019-04-16T12:27:55.347Z,4.58
2019-04-16T12:30:25.728Z,2.58
2019-04-16T12:33:09.093Z,2.00
2019-04-16T12:35:40.928Z,3.25
2019-04-16T12:38:12.725Z,3.60
2019-04-16T12:41:03.202Z,2.40
2019-04-16T12:43:33.833Z,2.77
2019-04-16T12:46:16.439Z,2.22
2019-04-16T12:48:55.153Z,2.67
2019-04-16T12:51:27.526Z,2.08
2019-04-16T12:54:18.793Z,3.08
2019-04-16T12:57:05.553Z,1.90
2019-04-16T12:59:55.006Z,2.22
2019-04-16T13:02:36.288Z,1.92
2019-04-16T13:05:24.630Z,2.52
2019-04-16T13:07:54.864Z,1.82
2019-04-16T13:10:31.928Z,1.70
2019-04-16T13:13:18.669Z,2.15
2019-04-16T13:15:48.979Z,1.75
2019-04-16T13:18:19.237Z,1.87
2019-04-16T13:20:50.457Z,2.70
2019-04-16T13:23:23.311Z,2.10
2019-04-16T13:25:55.165Z,2.55
2019-04-16T13:28:27.508Z,1.75
2019-04-16T13:30:56.233Z,1.95
2019-04-16T13:33:25.459Z,2.15
2019-04-16T13:35:57.637Z,1.87
2019-04-16T13:38:27.960Z,1.90
2019-04-16T13:40:56.704Z,2.30
2019-04-16T13:43:38.360Z,2.40
2019-04-16T13:46:09.192Z,1.65
2019-04-16T13:48:42.379Z,1.57
2019-04-16T13:51:19.011Z,1.77
2019-04-16T13:54:01.910Z,1.45
2019-04-16T13:56:31.615Z,1.72
2019-04-16T13:59:18.160Z,1.80
2019-04-16T14:02:01.912Z,2.10
2019-04-16T14:04:36.751Z,2.12
2019-04-16T14:07:03.137Z,1.65
2019-04-16T14:09:31.909Z,1.52
2019-04-16T14:12:00.701Z,2.10
2019-04-16T14:14:29.502Z,1.80
2019-04-16T14:17:08.272Z,1.95
2019-04-16T14:19:28.619Z,1.65
2019-04-16T14:21:57.302Z,2.42
2019-04-16T14:24:26.984Z,3.02
2019-04-16T14:26:55.702Z,2.15
2019-04-16T14:29:29.835Z,2.10
2019-04-16T14:31:58.777Z,2.50
2019-04-16T14:34:37.830Z,2.60
2019-04-16T14:37:10.628Z,3.30
2019-04-16T14:39:43.796Z,4.23
2019-04-16T14:42:15.330Z,5.28
2019-04-16T14:44:48.518Z,3.10
2019-04-16T14:47:17.659Z,2.70
2019-04-16T14:49:47.779Z,2.92
2019-04-16T14:52:16.661Z,3.30
2019-04-16T14:54:47.972Z,4.42
2019-04-16T14:57:19.272Z,4.50
2019-04-16T14:59:52.611Z,4.78
2019-04-16T15:02:29.982Z,4.95
2019-04-16T15:05:03.330Z,4.97
2019-04-16T15:07:33.749Z,4.75
2019-04-16T15:10:06.085Z,5.35
2019-04-16T15:12:39.070Z,5.70
2019-04-16T15:15:11.735Z,5.15
2019-04-16T15:17:44.152Z,4.67
2019-04-16T15:20:23.590Z,5.20
2019-04-16T15:23:12.238Z,5.60
2019-04-16T15:25:59.024Z,7.42
2019-04-16T15:28:38.285Z,9.38
2019-04-16T15:31:20.691Z,10.68
2019-04-16T15:33:50.985Z,13.38
2019-04-16T15:36:21.325Z,13.78
2019-04-16T15:38:54.399Z,12.40
2019-04-16T15:41:24.755Z,11.18
2019-04-16T15:44:00.853Z,7.90
2019-04-16T15:46:35.285Z,8.70
2019-04-16T15:49:09.210Z,9.93
2019-04-16T15:51:50.634Z,10.58
2019-04-16T15:54:32.589Z,9.70
2019-04-16T15:57:19.503Z,11.43
2019-04-16T15:59:52.209Z,10.55
2019-04-16T16:02:24.275Z,11.53
2019-04-16T16:05:03.779Z,11.78
2019-04-16T16:07:32.957Z,11.73
2019-04-16T16:10:03.407Z,11.85
2019-04-16T16:12:35.909Z,12.70
2019-04-16T16:15:07.582Z,12.60
2019-04-16T16:17:34.918Z,14.07
2019-04-16T16:20:09.624Z,15.85
2019-04-16T16:22:34.543Z,15.20
2019-04-16T16:25:05.642Z,15.53
2019-04-16T16:27:33.657Z,15.15
2019-04-16T16:30:02.507Z,12.60
2019-04-16T16:32:31.295Z,9.95
2019-04-16T16:35:00.022Z,7.12
2019-04-16T16:37:28.765Z,8.23
2019-04-16T16:39:57.586Z,7.83
2019-04-16T16:42:29.309Z,9.40
2019-04-16T16:45:01.620Z,7.17
2019-04-16T16:47:30.918Z,6.37
2019-04-16T16:50:00.741Z,7.03
2019-04-16T16:52:33.619Z,6.22
2019-04-16T16:55:03.842Z,6.10
2019-04-16T16:57:40.371Z,7.40
2019-04-16T17:00:10.841Z,6.80
2019-04-16T17:02:42.218Z,7.62
2019-04-16T17:05:15.352Z,8.35
2019-04-16T17:07:44.053Z,24.00
2019-04-16T17:10:12.802Z,9.73
2019-04-16T17:12:41.594Z,9.90
2019-04-16T17:15:10.397Z,12.88
2019-04-16T17:17:39.128Z,14.33
2019-04-16T17:20:07.847Z,16.93
2019-04-16T17:22:40.696Z,22.67
2019-04-16T17:25:11.659Z,24.55
2019-04-16T17:27:50.521Z,25.23
2019-04-16T17:30:09.279Z,24.30
2019-04-16T17:32:42.846Z,22.82
2019-04-16T17:35:15.562Z,23.85
2019-04-16T17:37:41.958Z,23.98
2019-04-16T17:40:18.468Z,25.85
2019-04-16T17:42:48.776Z,24.98
2019-04-16T17:45:38.231Z,25.00
2019-04-16T17:48:11.585Z,23.22
2019-04-16T17:50:45.123Z,23.92
2019-04-16T17:53:30.415Z,21.75
2019-04-16T17:56:18.524Z,21.97
2019-04-16T17:58:48.888Z,20.55
2019-04-16T18:01:19.171Z,20.75
2019-04-16T18:03:58.507Z,20.10
2019-04-16T18:06:28.934Z,20.35
2019-04-16T18:08:59.276Z,21.65
2019-04-16T18:11:29.612Z,20.35
2019-04-16T18:14:06.410Z,20.12
2019-04-16T18:16:34.732Z,20.55
2019-04-16T18:19:07.644Z,20.30
2019-04-16T18:21:46.958Z,21.10
2019-04-16T18:24:32.572Z,20.40
2019-04-16T18:27:02.873Z,21.50
2019-04-16T18:29:42.023Z,20.97
2019-04-16T18:32:12.409Z,21.55
2019-04-16T18:34:49.082Z,20.85
2019-04-16T18:37:19.558Z,19.95
2019-04-16T18:39:56.857Z,21.35
2019-04-16T18:42:44.115Z,20.17
2019-04-16T18:45:32.161Z,17.92
2019-04-16T18:48:12.970Z,17.92
2019-04-16T18:51:48.619Z,17.77
2019-04-16T18:54:18.069Z,18.25
2019-04-16T18:56:47.462Z,17.48
2019-04-16T18:59:17.590Z,17.35
2019-04-16T19:01:48.789Z,18.32
2019-04-16T19:04:17.769Z,17.65
2019-04-16T19:06:47.032Z,17.85
2019-04-16T19:09:16.197Z,17.82
2019-04-16T19:11:45.299Z,18.65
2019-04-16T19:14:18.813Z,19.67
2019-04-16T19:16:49.014Z,19.45
2019-04-16T19:19:22.048Z,19.92
2019-04-16T19:21:52.199Z,19.48
2019-04-16T19:24:20.603Z,20.27
2019-04-16T19:26:50.100Z,17.42
2019-04-16T19:29:19.036Z,17.92
2019-04-16T19:31:48.038Z,17.42
2019-04-16T19:34:16.968Z,19.23
2019-04-16T19:36:46.120Z,19.12
2019-04-16T19:39:15.738Z,19.30
2019-04-16T19:41:44.803Z,20.68
2019-04-16T19:44:13.814Z,21.55
2019-04-16T19:46:45.983Z,20.48
2019-04-16T19:49:13.801Z,19.60
2019-04-16T19:51:43.009Z,24.00
2019-04-16T19:54:13.006Z,20.72
2019-04-16T19:56:51.184Z,22.30
2019-04-16T19:59:18.094Z,20.12
2019-04-16T20:01:49.351Z,20.57
2019-04-16T20:04:18.758Z,18.17
2019-04-16T20:06:48.055Z,15.50
2019-04-16T20:09:17.086Z,15.05
2019-04-16T20:11:54.829Z,16.05
2019-04-16T20:14:20.131Z,17.23
2019-04-16T20:16:49.106Z,15.93
2019-04-16T20:19:18.358Z,17.15
2019-04-16T20:21:50.045Z,15.93
2019-04-16T20:24:19.373Z,16.35
2019-04-16T20:26:48.506Z,17.20
2019-04-16T20:29:17.614Z,15.03
2019-04-16T20:31:46.733Z,14.10
2019-04-16T20:34:18.167Z,14.60
2019-04-16T20:36:47.223Z,14.23
2019-04-16T20:39:16.508Z,12.68
2019-04-16T20:41:52.688Z,11.28
2019-04-16T20:44:18.754Z,12.47
2019-04-16T20:46:47.932Z,12.75
2019-04-16T20:49:17.469Z,9.70
2019-04-16T20:51:50.322Z,9.75
2019-04-16T20:54:19.379Z,9.90
2019-04-16T20:56:50.043Z,9.30
2019-04-16T20:59:20.074Z,9.90
2019-04-16T21:01:50.426Z,10.48
2019-04-16T21:04:20.409Z,9.60
2019-04-16T21:06:49.382Z,10.10
2019-04-16T21:09:18.807Z,9.10
2019-04-16T21:11:47.883Z,8.83
2019-04-16T21:14:18.856Z,8.80
2019-04-16T21:16:47.514Z,9.63
2019-04-16T21:19:23.256Z,7.70
2019-04-16T21:21:47.466Z,8.03
2019-04-16T21:24:16.570Z,9.78
2019-04-16T21:26:48.278Z,9.50
2019-04-16T21:29:21.692Z,13.20
2019-04-16T21:31:52.353Z,9.78
2019-04-16T21:34:25.074Z,10.03
2019-04-16T21:37:14.018Z,11.85
2019-04-16T21:39:56.320Z,11.60
2019-04-16T21:42:25.731Z,11.95
2019-04-16T21:44:54.798Z,12.28
2019-04-16T21:47:24.313Z,10.28
2019-04-16T21:49:53.965Z,10.53
2019-04-16T21:52:23.924Z,17.37
2019-04-16T21:54:53.243Z,14.50
2019-04-16T21:57:23.074Z,12.20
2019-04-16T21:59:56.961Z,11.90
2019-04-16T22:02:26.876Z,17.27
2019-04-16T22:04:56.161Z,21.27
2019-04-16T22:07:25.609Z,23.67
2019-04-16T22:09:54.608Z,14.33
2019-04-16T22:12:26.510Z,11.88
2019-04-16T22:14:55.942Z,12.33
2019-04-16T22:17:25.052Z,17.42
2019-04-16T22:20:01.293Z,15.25
2019-04-16T22:22:28.109Z,10.80
2019-04-16T22:24:58.299Z,11.68
2019-04-16T22:27:27.268Z,15.25
2019-04-16T22:29:56.758Z,7.83
2019-04-16T22:32:28.836Z,4.90
2019-04-16T22:34:56.732Z,10.93
2019-04-16T22:37:28.773Z,11.18
2019-04-16T22:40:05.420Z,9.45
2019-04-16T22:42:38.635Z,8.38
2019-04-16T22:45:25.339Z,8.78
2019-04-16T22:47:54.502Z,4.80
2019-04-16T22:50:23.454Z,8.48
2019-04-16T22:52:52.498Z,7.75
2019-04-16T22:55:24.433Z,8.25
2019-04-16T22:57:52.085Z,6.45
2019-04-16T23:00:35.005Z,6.47
2019-04-16T23:03:04.213Z,6.53
2019-04-16T23:05:33.171Z,8.33
2019-04-16T23:08:02.808Z,10.05
2019-04-16T23:10:32.140Z,13.53
2019-04-16T23:13:01.621Z,6.70
2019-04-16T23:15:30.855Z,6.20
2019-04-16T23:17:59.965Z,3.98
2019-04-16T23:20:30.076Z,8.28
2019-04-16T23:22:59.337Z,3.92
2019-04-16T23:25:29.301Z,2.98
2019-04-16T23:27:58.392Z,3.65
2019-04-16T23:30:27.086Z,4.58
2019-04-16T23:33:00.045Z,5.75
2019-04-16T23:35:28.704Z,3.37
2019-04-16T23:37:59.500Z,6.80
2019-04-16T23:40:28.264Z,3.08
2019-04-16T23:43:15.278Z,3.40
2019-04-16T23:46:05.297Z,3.10
2019-04-16T23:48:34.363Z,3.05
2019-04-16T23:51:11.911Z,3.30
2019-04-16T23:53:54.634Z,2.75
2019-04-16T23:56:30.887Z,2.95
2019-04-16T23:59:13.419Z,3.25
